createdAt,value
2019-05-06T00:00:34.150Z,6.30
2019-05-06T00:03:11.188Z,6.40
2019-05-06T00:05:48.194Z,6.30
2019-05-06T00:08:20.306Z,6.30
2019-05-06T00:10:55.240Z,6.30
2019-05-06T00:13:34.300Z,6.20
2019-05-06T00:16:05.774Z,6.30
2019-05-06T00:18:40.352Z,6.40
2019-05-06T00:21:20.076Z,6.30
2019-05-06T00:23:57.955Z,6.30
2019-05-06T00:26:56.906Z,6.30
2019-05-06T00:29:35.168Z,6.30
2019-05-06T00:32:15.109Z,6.20
2019-05-06T00:34:55.056Z,6.00
2019-05-06T00:37:32.318Z,6.00
2019-05-06T00:40:26.905Z,5.90
2019-05-06T00:43:11.543Z,5.90
2019-05-06T00:45:54.429Z,6.00
2019-05-06T00:48:25.123Z,6.00
2019-05-06T00:50:58.902Z,6.00
2019-05-06T00:53:34.863Z,6.10
2019-05-06T00:56:11.530Z,6.00
2019-05-06T00:59:05.141Z,5.90
2019-05-06T01:01:45.051Z,5.70
2019-05-06T01:04:21.721Z,5.90
2019-05-06T01:06:54.514Z,6.00
2019-05-06T01:09:29.798Z,5.90
2019-05-06T01:12:03.841Z,5.90
2019-05-06T01:14:44.041Z,5.70
2019-05-06T01:17:20.216Z,5.80
2019-05-06T01:19:56.382Z,5.70
2019-05-06T01:22:27.488Z,5.50
2019-05-06T01:24:58.448Z,5.60
2019-05-06T01:27:37.549Z,5.50
2019-05-06T01:30:13.671Z,5.60
2019-05-06T01:32:54.375Z,5.40
2019-05-06T01:35:30.668Z,5.60
2019-05-06T01:38:33.999Z,5.70
2019-05-06T01:41:24.260Z,5.60
2019-05-06T01:43:56.311Z,5.70
2019-05-06T01:46:35.648Z,5.70
2019-05-06T01:49:15.602Z,5.70
2019-05-06T01:51:48.171Z,5.50
2019-05-06T01:54:28.660Z,5.50
2019-05-06T01:57:04.423Z,5.60
2019-05-06T01:59:47.816Z,5.60
2019-05-06T02:02:30.312Z,5.50
2019-05-06T02:05:06.998Z,5.50
2019-05-06T02:08:06.316Z,5.40
2019-05-06T02:10:45.181Z,5.50
2019-05-06T02:13:17.498Z,5.20
2019-05-06T02:15:50.694Z,5.30
2019-05-06T02:18:24.327Z,5.50
2019-05-06T02:21:08.547Z,5.50
2019-05-06T02:23:53.544Z,5.40
2019-05-06T02:26:26.399Z,5.60
2019-05-06T02:28:58.537Z,5.60
2019-05-06T02:31:50.391Z,5.50
2019-05-06T02:34:36.674Z,5.50
2019-05-06T02:37:25.532Z,5.50
2019-05-06T02:39:57.727Z,5.50
2019-05-06T02:42:28.353Z,5.50
2019-05-06T02:45:12.582Z,5.50
2019-05-06T02:47:53.709Z,5.40
2019-05-06T02:50:29.419Z,5.40
2019-05-06T02:53:15.287Z,5.30
2019-05-06T02:55:44.317Z,5.50
2019-05-06T02:58:19.729Z,5.50
2019-05-06T03:01:03.797Z,5.50
2019-05-06T03:03:39.662Z,5.50
2019-05-06T03:06:13.161Z,5.50
2019-05-06T03:08:48.496Z,5.40
2019-05-06T03:11:43.887Z,5.50
2019-05-06T03:14:23.403Z,5.50
2019-05-06T03:20:59.753Z,5.30
2019-05-06T03:23:43.741Z,5.30
2019-05-06T03:26:23.489Z,5.30
2019-05-06T03:28:57.919Z,5.10
2019-05-06T03:31:36.501Z,5.30
2019-05-06T03:34:35.861Z,5.40
2019-05-06T03:36:48.656Z,5.40
2019-05-06T03:39:27.185Z,5.40
2019-05-06T03:42:04.537Z,5.30
2019-05-06T03:44:38.104Z,5.20
2019-05-06T03:47:43.330Z,5.30
2019-05-06T03:50:14.868Z,5.30
2019-05-06T03:52:56.524Z,5.30
2019-05-06T03:55:38.562Z,5.10
2019-05-06T03:58:14.454Z,5.20
2019-05-06T04:00:53.017Z,5.20
2019-05-06T04:03:44.113Z,5.00
2019-05-06T04:06:04.412Z,5.10
2019-05-06T04:08:39.806Z,5.10
2019-05-06T04:11:17.722Z,5.20
2019-05-06T04:13:58.560Z,5.20
2019-05-06T04:16:53.251Z,5.30
2019-05-06T04:19:33.128Z,5.20
2019-05-06T04:22:33.085Z,5.30
2019-05-06T04:25:29.596Z,5.40
2019-05-06T04:28:14.964Z,5.40
2019-05-06T04:30:50.726Z,5.30
2019-05-06T04:33:23.878Z,5.30
2019-05-06T04:36:03.577Z,5.40
2019-05-06T04:38:43.398Z,5.30
2019-05-06T04:41:26.662Z,5.40
2019-05-06T04:44:02.716Z,5.30
2019-05-06T04:46:34.882Z,5.30
2019-05-06T04:49:14.869Z,5.50
2019-05-06T04:51:45.709Z,5.60
2019-05-06T04:54:16.866Z,5.70
2019-05-06T04:56:53.744Z,5.70
2019-05-06T04:59:32.606Z,5.70
2019-05-06T05:02:19.294Z,5.60
2019-05-06T05:05:05.963Z,5.80
2019-05-06T05:07:55.948Z,5.70
2019-05-06T05:10:53.059Z,5.90
2019-05-06T05:13:47.171Z,5.90
2019-05-06T05:16:38.198Z,5.90
2019-05-06T05:19:20.281Z,5.90
2019-05-06T05:22:06.959Z,6.00
2019-05-06T05:24:42.377Z,6.10
2019-05-06T05:27:16.397Z,6.20
2019-05-06T05:29:52.214Z,6.30
2019-05-06T05:32:34.880Z,6.30
2019-05-06T05:35:09.088Z,6.40
2019-05-06T05:37:50.074Z,6.40
2019-05-06T05:40:22.977Z,6.60
2019-05-06T05:43:59.744Z,6.70
2019-05-06T05:47:00.066Z,6.80
2019-05-06T05:50:02.992Z,6.90
2019-05-06T05:53:02.494Z,6.90
2019-05-06T05:55:49.378Z,7.10
2019-05-06T05:58:53.508Z,7.20
2019-05-06T06:01:29.154Z,7.40
2019-05-06T06:04:19.080Z,7.60
2019-05-06T06:07:24.739Z,7.60
2019-05-06T06:10:12.802Z,7.90
2019-05-06T06:12:47.357Z,7.80
2019-05-06T06:15:42.701Z,8.10
2019-05-06T06:18:33.380Z,8.40
2019-05-06T06:21:28.205Z,8.70
2019-05-06T06:24:15.798Z,8.30
2019-05-06T06:27:12.555Z,9.00
2019-05-06T06:30:02.428Z,9.00
2019-05-06T06:32:41.939Z,8.90
2019-05-06T06:35:57.157Z,9.40
2019-05-06T06:38:49.915Z,9.60
2019-05-06T06:41:39.181Z,9.90
2019-05-06T06:44:36.801Z,10.00
2019-05-06T06:47:12.418Z,9.70
2019-05-06T06:49:57.159Z,10.10
2019-05-06T06:52:54.897Z,9.90
2019-05-06T06:55:35.050Z,10.20
2019-05-06T06:58:22.852Z,9.80
2019-05-06T07:01:23.485Z,9.30
2019-05-06T07:04:10.621Z,9.70
2019-05-06T07:06:42.276Z,8.90
2019-05-06T07:09:52.574Z,9.50
2019-05-06T07:12:25.203Z,9.70
2019-05-06T07:15:25.872Z,10.30
2019-05-06T07:18:06.250Z,9.30
2019-05-06T07:21:13.853Z,10.20
2019-05-06T07:27:22.676Z,10.40
2019-05-06T07:30:26.089Z,10.20
2019-05-06T07:33:03.469Z,10.60
2019-05-06T07:35:53.293Z,10.10
2019-05-06T07:38:36.883Z,10.70
2019-05-06T07:41:45.790Z,10.60
2019-05-06T07:45:06.368Z,10.90
2019-05-06T07:51:12.432Z,9.80
2019-05-06T07:53:49.065Z,10.40
2019-05-06T07:56:24.327Z,10.20
2019-05-06T07:59:37.668Z,10.50
2019-05-06T08:02:34.613Z,11.20
2019-05-06T08:05:09.660Z,10.40
2019-05-06T08:07:46.001Z,11.20
2019-05-06T08:10:24.440Z,10.60
2019-05-06T08:16:49.391Z,10.30
2019-05-06T08:19:48.457Z,9.80
2019-05-06T08:22:25.510Z,10.20
2019-05-06T08:25:03.476Z,9.90
2019-05-06T08:27:37.516Z,10.00
2019-05-06T08:30:36.341Z,9.80
2019-05-06T08:34:02.617Z,9.70
2019-05-06T08:36:49.742Z,10.00
2019-05-06T08:39:28.930Z,10.70
2019-05-06T08:42:15.544Z,10.50
2019-05-06T08:44:53.023Z,10.40
2019-05-06T08:47:33.185Z,10.50
2019-05-06T08:50:32.345Z,10.60
2019-05-06T08:53:35.423Z,11.20
2019-05-06T08:56:47.233Z,11.00
2019-05-06T08:59:20.893Z,11.40
2019-05-06T09:02:05.900Z,11.50
2019-05-06T09:05:02.991Z,11.40
2019-05-06T09:07:38.104Z,11.90
2019-05-06T09:10:14.735Z,11.90
2019-05-06T09:12:48.134Z,11.60
2019-05-06T09:15:42.737Z,11.90
2019-05-06T09:18:35.952Z,11.80
2019-05-06T09:21:46.621Z,11.60
2019-05-06T09:24:28.437Z,12.20
2019-05-06T09:27:47.422Z,11.00
2019-05-06T09:30:58.889Z,11.70
2019-05-06T09:34:02.813Z,10.70
2019-05-06T09:37:26.121Z,11.40
2019-05-06T09:40:06.167Z,11.80
2019-05-06T09:43:06.280Z,11.90
2019-05-06T09:45:42.534Z,12.20
2019-05-06T09:49:03.309Z,12.50
2019-05-06T09:51:35.207Z,11.50
2019-05-06T09:54:13.901Z,11.60
2019-05-06T09:57:04.431Z,11.90
2019-05-06T09:59:42.197Z,11.60
2019-05-06T10:02:34.915Z,11.80
2019-05-06T10:05:19.322Z,12.40
2019-05-06T10:07:56.333Z,12.40
2019-05-06T10:10:56.773Z,11.30
2019-05-06T10:13:27.830Z,12.20
2019-05-06T10:16:05.355Z,11.90
2019-05-06T10:18:48.169Z,12.80
2019-05-06T10:21:29.180Z,11.40
2019-05-06T10:24:16.163Z,11.80
2019-05-06T10:27:02.567Z,11.90
2019-05-06T10:30:04.055Z,12.80
2019-05-06T10:32:54.614Z,11.90
2019-05-06T10:35:35.280Z,12.50
2019-05-06T10:38:35.220Z,10.90
2019-05-06T10:41:27.147Z,11.60
2019-05-06T10:44:34.116Z,11.90
2019-05-06T10:47:05.683Z,11.40
2019-05-06T10:49:41.916Z,11.60
2019-05-06T10:52:42.172Z,12.90
2019-05-06T10:55:14.463Z,12.10
2019-05-06T10:57:53.157Z,13.00
2019-05-06T11:00:25.327Z,12.40
2019-05-06T11:03:28.520Z,11.70
2019-05-06T11:06:08.879Z,12.40
2019-05-06T11:08:59.188Z,13.60
2019-05-06T11:11:38.972Z,13.20
2019-05-06T11:14:15.084Z,12.50
2019-05-06T11:16:54.002Z,12.90
2019-05-06T11:19:38.363Z,13.70
2019-05-06T11:22:12.723Z,14.10
2019-05-06T11:25:06.995Z,13.70
2019-05-06T11:27:37.510Z,12.80
2019-05-06T11:30:36.795Z,11.10
2019-05-06T11:33:53.673Z,11.50
2019-05-06T11:36:33.689Z,10.70
2019-05-06T11:39:32.221Z,11.20
2019-05-06T11:42:24.995Z,10.60
2019-05-06T11:44:59.558Z,11.50
2019-05-06T11:47:35.279Z,10.70
2019-05-06T11:50:15.325Z,11.70
2019-05-06T11:52:55.695Z,11.70
2019-05-06T11:55:37.830Z,12.60
2019-05-06T11:58:47.031Z,12.30
2019-05-06T12:01:40.303Z,13.00
2019-05-06T12:04:28.332Z,12.90
2019-05-06T12:07:11.462Z,13.30
2019-05-06T12:09:54.756Z,13.40
2019-05-06T12:13:06.820Z,13.20
2019-05-06T12:16:07.444Z,12.70
2019-05-06T12:18:52.900Z,12.50
2019-05-06T12:21:43.541Z,13.40
2019-05-06T12:24:19.258Z,13.90
2019-05-06T12:26:56.344Z,13.60
2019-05-06T12:29:52.758Z,13.60
2019-05-06T12:32:33.287Z,12.40
2019-05-06T12:35:03.659Z,12.60
2019-05-06T12:37:44.139Z,13.00
2019-05-06T12:40:32.162Z,12.90
2019-05-06T12:43:22.804Z,10.90
2019-05-06T12:45:59.444Z,10.60
2019-05-06T12:48:39.706Z,11.00
2019-05-06T12:51:22.746Z,11.60
2019-05-06T12:54:03.316Z,11.40
2019-05-06T12:56:33.880Z,11.30
2019-05-06T12:59:05.535Z,11.60
2019-05-06T13:01:45.322Z,11.50
2019-05-06T13:04:15.267Z,11.60
2019-05-06T13:07:00.111Z,11.90
2019-05-06T13:09:42.519Z,11.30
2019-05-06T13:12:29.386Z,12.00
2019-05-06T13:15:24.690Z,11.40
2019-05-06T13:18:06.837Z,10.80
2019-05-06T13:20:49.567Z,10.60
2019-05-06T13:23:49.076Z,9.40
2019-05-06T13:26:22.255Z,9.80
2019-05-06T13:29:04.322Z,10.50
2019-05-06T13:31:52.798Z,10.30
2019-05-06T13:34:36.174Z,10.10
2019-05-06T13:37:16.164Z,9.80
2019-05-06T13:39:58.037Z,9.70
2019-05-06T13:42:37.422Z,9.60
2019-05-06T13:45:14.797Z,10.90
2019-05-06T13:48:18.617Z,10.00
2019-05-06T13:51:12.446Z,10.70
2019-05-06T13:53:52.865Z,10.40
2019-05-06T13:56:26.919Z,10.90
2019-05-06T13:59:16.780Z,11.20
2019-05-06T14:02:16.360Z,9.80
2019-05-06T14:05:02.995Z,10.90
2019-05-06T14:07:43.580Z,10.20
2019-05-06T14:10:27.207Z,10.00
2019-05-06T14:13:27.180Z,9.80
2019-05-06T14:16:03.768Z,9.50
2019-05-06T14:18:53.415Z,9.60
2019-05-06T14:21:42.931Z,9.00
2019-05-06T14:24:22.465Z,9.00
2019-05-06T14:27:17.214Z,9.10
2019-05-06T14:30:17.006Z,8.60
2019-05-06T14:33:03.389Z,8.70
2019-05-06T14:35:34.752Z,9.20
2019-05-06T14:41:27.266Z,9.00
2019-05-06T14:44:27.644Z,9.50
2019-05-06T14:47:24.146Z,8.50
2019-05-06T14:50:14.746Z,9.00
2019-05-06T14:53:02.682Z,9.60
2019-05-06T14:55:48.138Z,9.60
2019-05-06T14:58:32.535Z,10.10
2019-05-06T15:01:17.266Z,9.90
2019-05-06T15:04:18.147Z,9.70
2019-05-06T15:07:05.470Z,10.00
2019-05-06T15:09:35.343Z,10.00
2019-05-06T15:12:16.679Z,10.10
2019-05-06T15:14:46.567Z,9.90
2019-05-06T15:17:16.485Z,10.60
2019-05-06T15:19:46.105Z,10.60
2019-05-06T15:22:16.227Z,9.50
2019-05-06T15:25:02.413Z,10.40
2019-05-06T15:27:33.548Z,10.60
2019-05-06T15:30:06.006Z,10.40
2019-05-06T15:32:37.913Z,10.40
2019-05-06T15:35:43.452Z,10.50
2019-05-06T15:38:22.243Z,10.30
2019-05-06T15:40:54.442Z,10.20
2019-05-06T15:43:24.247Z,10.10
2019-05-06T15:45:58.590Z,10.00
2019-05-06T15:48:28.931Z,9.50
2019-05-06T15:50:58.673Z,9.40
2019-05-06T15:53:32.845Z,10.00
2019-05-06T15:56:03.029Z,9.40
2019-05-06T15:58:32.937Z,9.60
2019-05-06T16:01:03.432Z,10.10
2019-05-06T16:03:33.802Z,10.00
2019-05-06T16:06:08.124Z,10.10
2019-05-06T16:08:38.642Z,9.90
2019-05-06T16:11:08.959Z,10.20
2019-05-06T16:14:02.931Z,10.30
2019-05-06T16:16:33.859Z,9.90
2019-05-06T16:19:05.714Z,9.80
2019-05-06T16:21:35.723Z,10.10
2019-05-06T16:24:13.981Z,10.20
2019-05-06T16:26:49.510Z,9.60
2019-05-06T16:29:23.251Z,9.20
2019-05-06T16:32:28.116Z,9.00
2019-05-06T16:34:58.251Z,9.50
2019-05-06T16:37:32.866Z,9.60
2019-05-06T16:40:02.926Z,9.90
2019-05-06T16:42:32.750Z,10.00
2019-05-06T16:45:06.982Z,9.60
2019-05-06T16:47:38.225Z,9.90
2019-05-06T16:50:10.260Z,9.40
2019-05-06T16:52:44.834Z,9.40
2019-05-06T16:55:16.361Z,9.80
2019-05-06T16:57:52.455Z,9.80
2019-05-06T17:00:32.280Z,9.90
2019-05-06T17:03:11.684Z,10.20
2019-05-06T17:06:28.800Z,10.00
2019-05-06T17:08:58.811Z,10.10
2019-05-06T17:11:35.367Z,10.20
2019-05-06T17:14:05.635Z,10.10
2019-05-06T17:16:35.919Z,10.20
2019-05-06T17:19:06.566Z,10.20
2019-05-06T17:21:44.284Z,9.80
2019-05-06T17:24:13.945Z,9.70
2019-05-06T17:26:56.080Z,9.60
2019-05-06T17:29:45.585Z,9.80
2019-05-06T17:32:37.291Z,9.60
2019-05-06T17:35:09.351Z,8.60
2019-05-06T17:38:04.179Z,9.30
2019-05-06T17:40:42.891Z,9.50
2019-05-06T17:43:13.174Z,9.30
2019-05-06T17:45:59.357Z,9.40
2019-05-06T17:48:48.794Z,9.50
2019-05-06T17:51:24.646Z,9.40
2019-05-06T17:53:54.843Z,9.50
2019-05-06T17:56:24.625Z,9.50
2019-05-06T17:58:56.618Z,9.40
2019-05-06T18:01:33.963Z,9.50
2019-05-06T18:06:43.517Z,9.30
2019-05-06T18:09:28.975Z,9.30
2019-05-06T18:11:59.565Z,9.20
2019-05-06T18:14:29.524Z,9.20
2019-05-06T18:16:59.575Z,9.30
2019-05-06T18:19:33.570Z,9.20
2019-05-06T18:22:05.808Z,9.30
2019-05-06T18:24:36.586Z,9.20
2019-05-06T18:27:06.383Z,9.20
2019-05-06T18:29:36.709Z,9.10
2019-05-06T18:32:06.719Z,9.10
2019-05-06T18:34:36.657Z,9.10
2019-05-06T18:37:06.387Z,9.10
2019-05-06T18:39:38.552Z,9.00
2019-05-06T18:42:16.944Z,8.90
2019-05-06T18:44:57.867Z,8.90
2019-05-06T18:47:28.015Z,8.70
2019-05-06T18:49:57.918Z,8.80
2019-05-06T18:52:27.671Z,8.90
2019-05-06T18:54:57.683Z,8.80
2019-05-06T18:57:43.136Z,8.80
2019-05-06T19:00:13.481Z,8.60
2019-05-06T19:02:43.467Z,8.70
2019-05-06T19:05:34.487Z,8.70
2019-05-06T19:08:06.595Z,8.60
2019-05-06T19:10:37.050Z,8.60
2019-05-06T19:13:08.683Z,8.70
2019-05-06T19:15:40.333Z,8.60
2019-05-06T19:18:10.400Z,8.60
2019-05-06T19:20:42.423Z,8.60
2019-05-06T19:23:13.030Z,8.60
2019-05-06T19:25:43.025Z,8.50
2019-05-06T19:28:14.372Z,8.50
2019-05-06T19:30:48.182Z,8.30
2019-05-06T19:33:17.889Z,8.20
2019-05-06T19:35:48.598Z,8.30
2019-05-06T19:38:21.335Z,8.30
2019-05-06T19:40:52.139Z,8.30
2019-05-06T19:43:29.115Z,8.30
2019-05-06T19:46:02.567Z,8.10
2019-05-06T19:48:32.919Z,8.10
2019-05-06T19:51:03.188Z,8.20
2019-05-06T19:53:34.618Z,8.20
2019-05-06T19:56:05.043Z,8.20
2019-05-06T19:58:35.120Z,7.90
2019-05-06T20:01:05.850Z,8.10
2019-05-06T20:03:39.039Z,8.10
2019-05-06T20:06:34.204Z,8.10
2019-05-06T20:09:22.621Z,7.90
2019-05-06T20:11:55.166Z,7.90
2019-05-06T20:14:25.021Z,7.50
2019-05-06T20:16:55.682Z,7.70
2019-05-06T20:19:30.846Z,7.80
2019-05-06T20:21:57.749Z,7.90
2019-05-06T20:24:27.951Z,7.80
2019-05-06T20:27:07.111Z,7.80
2019-05-06T20:29:42.990Z,7.80
2019-05-06T20:32:12.012Z,7.70
2019-05-06T20:34:42.821Z,7.60
2019-05-06T20:37:13.133Z,7.60
2019-05-06T20:39:43.546Z,7.60
2019-05-06T20:42:13.531Z,7.60
2019-05-06T20:44:43.891Z,7.60
2019-05-06T20:47:13.744Z,7.40
2019-05-06T20:49:49.562Z,7.40
2019-05-06T20:52:20.463Z,7.50
2019-05-06T20:54:50.928Z,7.30
2019-05-06T20:57:22.958Z,7.40
2019-05-06T20:59:53.106Z,7.10
2019-05-06T21:02:25.635Z,7.10
2019-05-06T21:04:54.559Z,6.90
2019-05-06T21:07:24.575Z,6.80
2019-05-06T21:10:06.546Z,6.70
2019-05-06T21:12:36.702Z,6.80
2019-05-06T21:15:07.271Z,6.80
2019-05-06T21:17:37.548Z,7.00
2019-05-06T21:20:07.913Z,7.00
2019-05-06T21:22:38.338Z,7.00
2019-05-06T21:25:08.839Z,6.80
2019-05-06T21:27:38.528Z,6.70
2019-05-06T21:30:09.945Z,6.80
2019-05-06T21:32:42.581Z,6.90
2019-05-06T21:35:14.994Z,6.90
2019-05-06T21:37:45.394Z,6.60
2019-05-06T21:40:15.669Z,6.40
2019-05-06T21:42:58.219Z,6.50
2019-05-06T21:45:28.831Z,6.50
2019-05-06T21:47:59.031Z,6.40
2019-05-06T21:50:32.861Z,6.50
2019-05-06T21:53:03.466Z,6.60
2019-05-06T21:55:33.005Z,6.50
2019-05-06T21:58:03.053Z,6.50
2019-05-06T22:00:43.676Z,6.50
2019-05-06T22:03:14.073Z,6.50
2019-05-06T22:05:44.261Z,6.40
2019-05-06T22:08:14.052Z,6.10
2019-05-06T22:10:45.875Z,6.00
2019-05-06T22:13:15.512Z,6.10
2019-05-06T22:15:47.914Z,6.30
2019-05-06T22:18:18.817Z,6.20
2019-05-06T22:21:07.786Z,6.20
2019-05-06T22:24:06.508Z,6.20
2019-05-06T22:26:37.618Z,6.10
2019-05-06T22:29:07.405Z,6.10
2019-05-06T22:31:38.102Z,6.00
2019-05-06T22:34:13.419Z,6.00
2019-05-06T22:36:43.283Z,5.90
2019-05-06T22:39:15.318Z,5.60
2019-05-06T22:41:45.622Z,5.70
2019-05-06T22:44:17.089Z,5.70
2019-05-06T22:46:47.015Z,5.70
2019-05-06T22:49:17.201Z,5.70
2019-05-06T22:51:47.790Z,5.60
2019-05-06T22:54:18.262Z,5.60
2019-05-06T22:56:49.499Z,5.60
2019-05-06T22:59:24.462Z,5.60
2019-05-06T23:02:14.725Z,5.50
2019-05-06T23:04:47.201Z,5.50
2019-05-06T23:07:18.006Z,5.50
2019-05-06T23:09:48.259Z,5.40
2019-05-06T23:12:18.933Z,5.40
2019-05-06T23:14:48.913Z,5.30
2019-05-06T23:17:18.665Z,5.30
2019-05-06T23:19:48.675Z,5.20
2019-05-06T23:22:18.668Z,5.20
2019-05-06T23:24:48.992Z,5.20
2019-05-06T23:27:29.395Z,5.30
2019-05-06T23:29:59.541Z,5.10
2019-05-06T23:32:57.370Z,5.00
2019-05-06T23:35:26.897Z,5.00
2019-05-06T23:38:33.954Z,5.00
2019-05-06T23:41:39.508Z,4.90
2019-05-06T23:44:54.557Z,4.70
2019-05-06T23:47:59.574Z,4.80
2019-05-06T23:51:05.484Z,4.90
2019-05-06T23:54:12.614Z,4.80
2019-05-06T23:56:43.291Z,4.80
2019-05-06T23:59:14.377Z,4.80
